createdAt,value
2022-11-08T00:00:44.709Z,4.50
2022-11-08T00:03:12.899Z,4.22
2022-11-08T00:05:58.205Z,5.07
2022-11-08T00:08:43.421Z,4.82
2022-11-08T00:11:28.792Z,4.68
2022-11-08T00:13:59.795Z,4.57
2022-11-08T00:16:30.035Z,4.00
2022-11-08T00:18:58.472Z,3.72
2022-11-08T00:21:26.462Z,3.80
2022-11-08T00:23:54.812Z,4.97
2022-11-08T00:26:22.812Z,4.20
2022-11-08T00:28:50.888Z,4.65
2022-11-08T00:31:18.836Z,4.85
2022-11-08T00:33:48.159Z,4.05
2022-11-08T00:36:16.343Z,4.10
2022-11-08T00:38:44.608Z,4.18
2022-11-08T00:41:13.090Z,3.70
2022-11-08T00:43:41.302Z,4.05
2022-11-08T00:46:09.526Z,4.25
2022-11-08T00:48:37.757Z,3.80
2022-11-08T00:51:08.833Z,4.22
2022-11-08T00:53:38.271Z,3.88
2022-11-08T00:56:12.190Z,3.77
2022-11-08T00:58:41.455Z,4.00
2022-11-08T01:01:10.805Z,3.97
2022-11-08T01:03:39.164Z,3.78
2022-11-08T01:06:10.612Z,4.03
2022-11-08T01:08:39.134Z,4.38
2022-11-08T01:11:09.139Z,4.28
2022-11-08T01:13:37.205Z,4.43
2022-11-08T01:16:08.349Z,4.13
2022-11-08T01:18:36.353Z,4.53
2022-11-08T01:21:06.473Z,4.45
2022-11-08T01:23:36.662Z,4.65
2022-11-08T01:26:06.388Z,4.40
2022-11-08T01:28:34.977Z,5.68
2022-11-08T01:31:06.439Z,4.75
2022-11-08T01:33:35.201Z,4.70
2022-11-08T01:36:03.332Z,4.53
2022-11-08T01:38:31.766Z,4.38
2022-11-08T01:41:02.350Z,4.65
2022-11-08T01:43:40.482Z,5.38
2022-11-08T01:46:35.717Z,4.90
2022-11-08T01:49:33.783Z,4.82
2022-11-08T01:52:09.262Z,4.75
2022-11-08T01:54:43.029Z,4.90
2022-11-08T01:57:15.829Z,5.43
2022-11-08T01:59:46.164Z,5.10
2022-11-08T02:02:15.056Z,4.82
2022-11-08T02:04:44.437Z,4.45
2022-11-08T02:07:14.247Z,4.68
2022-11-08T02:09:44.606Z,4.18
2022-11-08T02:12:14.763Z,4.70
2022-11-08T02:14:42.939Z,4.30
2022-11-08T02:17:12.004Z,4.70
2022-11-08T02:19:45.377Z,4.57
2022-11-08T02:22:28.564Z,4.35
2022-11-08T02:25:00.396Z,4.00
2022-11-08T02:27:28.597Z,4.35
2022-11-08T02:29:58.009Z,4.28
2022-11-08T02:32:26.164Z,5.03
2022-11-08T02:34:56.931Z,4.50
2022-11-08T02:37:26.596Z,4.40
2022-11-08T02:39:54.859Z,4.03
2022-11-08T02:42:24.387Z,4.15
2022-11-08T02:44:52.698Z,3.90
2022-11-08T02:47:21.101Z,4.60
2022-11-08T02:49:49.335Z,4.50
2022-11-08T02:52:19.961Z,4.55
2022-11-08T02:54:48.104Z,4.80
2022-11-08T02:57:16.351Z,4.57
2022-11-08T02:59:45.724Z,4.70
2022-11-08T03:02:13.940Z,4.97
2022-11-08T03:04:42.035Z,4.82
2022-11-08T03:07:10.101Z,4.55
2022-11-08T03:09:38.241Z,4.82
2022-11-08T03:12:09.155Z,4.60
2022-11-08T03:14:37.827Z,4.78
2022-11-08T03:17:07.431Z,4.55
2022-11-08T03:19:35.650Z,4.32
2022-11-08T03:22:04.029Z,4.80
2022-11-08T03:24:34.877Z,4.65
2022-11-08T03:27:02.943Z,4.57
2022-11-08T03:29:30.963Z,4.93
2022-11-08T03:31:59.032Z,4.88
2022-11-08T03:34:28.373Z,4.82
2022-11-08T03:36:56.359Z,5.10
2022-11-08T03:39:24.305Z,5.00
2022-11-08T03:41:52.272Z,4.88
2022-11-08T03:44:20.288Z,5.10
2022-11-08T03:46:48.240Z,4.80
2022-11-08T03:49:16.237Z,4.88
2022-11-08T03:51:45.876Z,4.50
2022-11-08T03:54:14.090Z,4.88
2022-11-08T03:56:42.367Z,5.20
2022-11-08T03:59:11.876Z,5.00
2022-11-08T04:01:40.360Z,5.15
2022-11-08T04:04:08.720Z,4.95
2022-11-08T04:06:36.836Z,5.50
2022-11-08T04:09:06.336Z,5.18
2022-11-08T04:11:54.306Z,5.73
2022-11-08T04:14:39.653Z,4.97
2022-11-08T04:17:07.740Z,5.75
2022-11-08T04:19:53.151Z,5.80
2022-11-08T04:22:21.118Z,5.93
2022-11-08T04:24:50.479Z,5.20
2022-11-08T04:27:18.479Z,5.57
2022-11-08T04:29:46.877Z,5.80
2022-11-08T04:32:14.811Z,5.28
2022-11-08T04:34:42.746Z,6.30
2022-11-08T04:37:10.651Z,5.57
2022-11-08T04:39:38.730Z,5.68
2022-11-08T04:42:08.072Z,6.00
2022-11-08T04:44:36.057Z,5.70
2022-11-08T04:47:04.138Z,6.03
2022-11-08T04:49:32.124Z,6.05
2022-11-08T04:52:00.227Z,5.88
2022-11-08T04:54:30.528Z,6.53
2022-11-08T04:56:58.569Z,6.60
2022-11-08T04:59:27.917Z,6.65
2022-11-08T05:01:56.209Z,6.55
2022-11-08T05:04:24.283Z,7.00
2022-11-08T05:06:52.284Z,7.22
2022-11-08T05:09:20.508Z,6.78
2022-11-08T05:11:48.519Z,7.10
2022-11-08T05:14:16.603Z,6.97
2022-11-08T05:16:45.953Z,6.40
2022-11-08T05:19:13.954Z,6.95
2022-11-08T05:21:59.208Z,7.05
2022-11-08T05:24:27.328Z,7.53
2022-11-08T05:26:55.523Z,8.70
2022-11-08T05:29:23.508Z,8.63
2022-11-08T05:31:53.013Z,8.15
2022-11-08T05:34:20.988Z,8.05
2022-11-08T05:36:48.975Z,7.85
2022-11-08T05:39:17.057Z,7.45
2022-11-08T05:41:45.071Z,7.15
2022-11-08T05:44:13.042Z,7.25
2022-11-08T05:46:41.070Z,7.15
2022-11-08T05:49:10.495Z,7.47
2022-11-08T05:51:38.558Z,7.07
2022-11-08T05:54:08.022Z,7.15
2022-11-08T05:56:36.721Z,6.88
2022-11-08T05:59:05.532Z,7.43
2022-11-08T06:01:36.369Z,8.00
2022-11-08T06:04:04.555Z,8.07
2022-11-08T06:06:33.969Z,8.10
2022-11-08T06:09:02.042Z,8.27
2022-11-08T06:11:30.158Z,8.15
2022-11-08T06:14:00.675Z,7.88
2022-11-08T06:16:28.646Z,9.00
2022-11-08T06:18:56.772Z,8.32
2022-11-08T06:21:27.313Z,7.55
2022-11-08T06:23:56.702Z,7.95
2022-11-08T06:26:25.237Z,8.95
2022-11-08T06:28:53.315Z,9.23
2022-11-08T06:31:21.381Z,7.90
2022-11-08T06:33:50.298Z,7.13
2022-11-08T06:36:18.498Z,7.28
2022-11-08T06:38:46.567Z,7.15
2022-11-08T06:41:19.812Z,6.38
2022-11-08T06:43:48.442Z,7.32
2022-11-08T06:46:16.950Z,7.30
2022-11-08T06:48:45.321Z,17.65
2022-11-08T06:51:15.046Z,6.97
2022-11-08T06:53:43.337Z,6.32
2022-11-08T06:56:14.171Z,7.07
2022-11-08T06:58:43.556Z,8.88
2022-11-08T07:01:12.378Z,10.00
2022-11-08T07:03:40.555Z,8.90
2022-11-08T07:06:09.425Z,7.93
2022-11-08T07:08:37.675Z,8.00
2022-11-08T07:11:06.789Z,8.57
2022-11-08T07:13:35.290Z,8.52
2022-11-08T07:16:07.313Z,8.52
2022-11-08T07:18:36.329Z,7.85
2022-11-08T07:21:04.593Z,7.97
2022-11-08T07:23:33.260Z,7.60
2022-11-08T07:26:04.794Z,7.05
2022-11-08T07:28:33.038Z,6.90
2022-11-08T07:31:02.311Z,7.40
2022-11-08T07:33:32.641Z,7.47
2022-11-08T07:36:00.957Z,7.18
2022-11-08T07:38:32.411Z,6.45
2022-11-08T07:41:02.269Z,6.47
2022-11-08T07:43:31.153Z,6.90
2022-11-08T07:46:11.623Z,6.30
2022-11-08T07:48:41.011Z,7.13
2022-11-08T07:51:09.029Z,6.20
2022-11-08T07:53:37.206Z,6.10
2022-11-08T07:56:05.621Z,6.97
2022-11-08T07:58:34.547Z,7.25
2022-11-08T08:01:03.467Z,6.85
2022-11-08T08:03:32.603Z,7.75
2022-11-08T08:06:02.147Z,7.85
2022-11-08T08:08:32.441Z,9.95
2022-11-08T08:11:01.334Z,6.55
2022-11-08T08:13:30.262Z,6.10
2022-11-08T08:16:02.026Z,5.57
2022-11-08T08:18:30.619Z,9.25
2022-11-08T08:20:59.471Z,10.15
2022-11-08T08:23:29.108Z,13.35
2022-11-08T08:25:57.442Z,12.05
2022-11-08T08:28:25.651Z,12.40
2022-11-08T08:30:53.651Z,9.23
2022-11-08T08:33:34.086Z,10.13
2022-11-08T08:36:02.575Z,8.98
2022-11-08T08:38:32.894Z,5.75
2022-11-08T08:41:02.257Z,8.73
2022-11-08T08:43:33.448Z,8.40
2022-11-08T08:46:02.574Z,7.97
2022-11-08T08:48:31.493Z,9.00
2022-11-08T08:50:59.629Z,7.15
2022-11-08T08:53:28.095Z,6.40
2022-11-08T08:55:57.589Z,6.20
2022-11-08T08:58:25.709Z,7.90
2022-11-08T09:03:41.972Z,7.93
2022-11-08T09:06:10.590Z,5.95
2022-11-08T09:08:38.622Z,7.13
2022-11-08T09:11:08.167Z,5.45
2022-11-08T09:13:36.202Z,6.57
2022-11-08T09:16:04.469Z,6.50
2022-11-08T09:18:33.253Z,5.72
2022-11-08T09:21:04.337Z,6.53
2022-11-08T09:23:32.389Z,6.13
2022-11-08T09:26:01.659Z,6.50
2022-11-08T09:28:31.911Z,5.25
2022-11-08T09:31:04.718Z,5.40
2022-11-08T09:33:32.699Z,4.68
2022-11-08T09:36:03.820Z,6.57
2022-11-08T09:38:33.989Z,4.78
2022-11-08T09:41:21.628Z,5.55
2022-11-08T09:44:06.641Z,5.10
2022-11-08T09:46:41.809Z,4.85
2022-11-08T09:49:18.864Z,5.05
2022-11-08T09:51:47.591Z,4.78
2022-11-08T09:54:22.503Z,4.78
2022-11-08T09:56:53.164Z,4.85
2022-11-08T09:59:35.831Z,5.07
2022-11-08T10:02:04.463Z,5.05
2022-11-08T10:04:33.963Z,4.18
2022-11-08T10:07:15.520Z,5.03
2022-11-08T10:10:05.578Z,5.13
2022-11-08T10:12:43.821Z,6.25
2022-11-08T10:15:23.418Z,4.53
2022-11-08T10:18:08.572Z,4.32
2022-11-08T10:20:44.960Z,4.75
2022-11-08T10:23:22.588Z,5.00
2022-11-08T10:25:55.458Z,4.28
2022-11-08T10:30:55.906Z,4.13
2022-11-08T10:33:33.396Z,4.95
2022-11-08T10:36:04.836Z,5.18
2022-11-08T10:38:37.101Z,5.30
2022-11-08T10:41:11.590Z,3.83
2022-11-08T10:43:43.127Z,3.95
2022-11-08T10:46:27.647Z,3.28
2022-11-08T10:48:59.977Z,3.92
2022-11-08T10:51:27.966Z,3.45
2022-11-08T10:53:55.999Z,2.83
2022-11-08T10:56:24.852Z,5.72
2022-11-08T10:58:52.994Z,3.70
2022-11-08T11:01:26.352Z,3.17
2022-11-08T11:03:54.835Z,3.55
2022-11-08T11:06:30.031Z,4.13
2022-11-08T11:08:59.927Z,4.28
2022-11-08T11:11:37.740Z,5.25
2022-11-08T11:14:16.596Z,3.95
2022-11-08T11:16:57.305Z,2.95
2022-11-08T11:19:26.716Z,3.33
2022-11-08T11:21:58.594Z,3.10
2022-11-08T11:24:26.766Z,4.13
2022-11-08T11:27:03.953Z,2.67
2022-11-08T11:29:33.875Z,2.90
2022-11-08T11:32:26.493Z,2.83
2022-11-08T11:34:57.993Z,3.63
2022-11-08T11:37:34.431Z,4.22
2022-11-08T11:40:08.269Z,2.80
2022-11-08T11:42:46.232Z,3.63
2022-11-08T11:45:20.004Z,3.28
2022-11-08T11:47:53.760Z,3.40
2022-11-08T11:50:30.856Z,3.22
2022-11-08T11:53:00.169Z,3.28
2022-11-08T11:55:43.839Z,3.10
2022-11-08T11:58:24.788Z,3.00
2022-11-08T12:01:02.276Z,2.72
2022-11-08T12:03:52.626Z,3.33
2022-11-08T12:06:31.233Z,3.90
2022-11-08T12:09:10.172Z,3.53
2022-11-08T12:11:47.823Z,2.80
2022-11-08T12:14:31.059Z,2.67
2022-11-08T12:17:11.325Z,3.22
2022-11-08T12:19:46.217Z,3.00
2022-11-08T12:22:44.711Z,2.70
2022-11-08T12:25:19.230Z,3.20
2022-11-08T12:27:53.419Z,4.22
2022-11-08T12:30:26.257Z,3.67
2022-11-08T12:35:49.569Z,3.97
2022-11-08T12:38:27.304Z,2.90
2022-11-08T12:41:04.147Z,4.82
2022-11-08T12:43:49.577Z,3.63
2022-11-08T12:46:19.131Z,3.25
2022-11-08T12:49:19.965Z,3.10
2022-11-08T12:52:02.602Z,2.60
2022-11-08T12:54:37.516Z,3.17
2022-11-08T12:57:09.958Z,2.80
2022-11-08T12:59:42.554Z,2.42
2022-11-08T13:02:19.652Z,2.05
2022-11-08T13:05:00.786Z,2.40
2022-11-08T13:07:39.379Z,3.00
2022-11-08T13:10:15.813Z,2.80
2022-11-08T13:13:00.507Z,2.45
2022-11-08T13:15:29.492Z,2.95
2022-11-08T13:18:24.176Z,2.63
2022-11-08T13:20:52.538Z,2.80
2022-11-08T13:23:29.709Z,2.85
2022-11-08T13:26:13.547Z,2.60
2022-11-08T13:28:45.212Z,2.58
2022-11-08T13:31:29.530Z,3.97
2022-11-08T13:34:22.476Z,2.25
2022-11-08T13:37:09.696Z,3.25
2022-11-08T13:40:04.387Z,3.00
2022-11-08T13:42:40.616Z,3.47
2022-11-08T13:45:28.046Z,4.90
2022-11-08T13:47:58.722Z,4.53
2022-11-08T13:50:46.825Z,2.65
2022-11-08T13:53:54.721Z,4.15
2022-11-08T13:56:49.956Z,2.05
2022-11-08T13:59:55.050Z,3.28
2022-11-08T14:02:50.369Z,2.80
2022-11-08T14:05:32.590Z,3.65
2022-11-08T14:08:23.082Z,2.80
2022-11-08T14:11:21.383Z,3.72
2022-11-08T14:14:25.031Z,4.10
2022-11-08T14:17:03.741Z,2.75
2022-11-08T14:19:34.082Z,3.05
2022-11-08T14:22:05.051Z,2.72
2022-11-08T14:24:37.667Z,3.38
2022-11-08T14:27:05.880Z,3.17
2022-11-08T14:29:35.468Z,2.67
2022-11-08T14:32:06.593Z,5.03
2022-11-08T14:34:36.953Z,4.10
2022-11-08T14:37:06.681Z,2.95
2022-11-08T14:39:37.459Z,2.72
2022-11-08T14:42:18.619Z,3.05
2022-11-08T14:44:52.641Z,3.10
2022-11-08T14:47:27.588Z,3.80
2022-11-08T14:49:55.730Z,4.00
2022-11-08T14:52:29.074Z,3.33
2022-11-08T14:55:06.005Z,3.03
2022-11-08T14:57:37.745Z,2.88
2022-11-08T15:00:16.487Z,3.05
2022-11-08T15:02:47.742Z,3.70
2022-11-08T15:05:33.185Z,3.45
2022-11-08T15:08:02.749Z,4.63
2022-11-08T15:10:30.732Z,3.83
2022-11-08T15:12:59.113Z,3.78
2022-11-08T15:15:34.583Z,3.20
2022-11-08T15:18:13.492Z,3.90
2022-11-08T15:20:42.222Z,6.07
2022-11-08T15:23:28.479Z,6.10
2022-11-08T15:25:58.607Z,4.82
2022-11-08T15:28:34.431Z,4.65
2022-11-08T15:31:05.431Z,4.05
2022-11-08T15:33:37.539Z,5.10
2022-11-08T15:36:14.453Z,5.28
2022-11-08T15:38:43.891Z,4.35
2022-11-08T15:41:32.830Z,4.57
2022-11-08T15:44:20.624Z,4.15
2022-11-08T15:46:53.840Z,5.78
2022-11-08T15:49:24.073Z,5.43
2022-11-08T15:51:53.523Z,4.40
2022-11-08T15:54:23.111Z,5.15
2022-11-08T15:56:53.146Z,5.35
2022-11-08T15:59:24.106Z,4.20
2022-11-08T16:01:56.114Z,4.03
2022-11-08T16:04:26.269Z,4.43
2022-11-08T16:06:54.376Z,4.38
2022-11-08T16:09:22.456Z,4.00
2022-11-08T16:11:51.264Z,4.20
2022-11-08T16:14:23.574Z,4.85
2022-11-08T16:16:53.316Z,4.57
2022-11-08T16:19:23.724Z,5.20
2022-11-08T16:21:52.392Z,5.00
2022-11-08T16:24:20.485Z,5.47
2022-11-08T16:26:49.889Z,5.25
2022-11-08T16:29:21.923Z,5.63
2022-11-08T16:31:50.698Z,6.70
2022-11-08T16:34:21.073Z,6.13
2022-11-08T16:36:50.703Z,6.65
2022-11-08T16:39:22.264Z,7.25
2022-11-08T16:41:52.372Z,8.32
2022-11-08T16:44:20.453Z,7.63
2022-11-08T16:46:48.770Z,7.55
2022-11-08T16:49:24.969Z,6.78
2022-11-08T16:51:52.998Z,6.72
2022-11-08T16:54:24.020Z,5.88
2022-11-08T16:56:59.447Z,5.05
2022-11-08T16:59:40.193Z,5.80
2022-11-08T17:02:20.252Z,6.20
2022-11-08T17:04:49.593Z,6.10
2022-11-08T17:07:17.992Z,5.65
2022-11-08T17:09:46.087Z,7.03
2022-11-08T17:12:14.181Z,5.70
2022-11-08T17:14:42.322Z,5.05
2022-11-08T17:17:12.125Z,5.97
2022-11-08T17:19:40.232Z,5.95
2022-11-08T17:22:09.602Z,5.80
2022-11-08T17:24:37.596Z,7.07
2022-11-08T17:27:05.739Z,6.97
2022-11-08T17:29:33.779Z,6.30
2022-11-08T17:32:01.798Z,6.30
2022-11-08T17:34:29.891Z,6.65
2022-11-08T17:36:58.061Z,7.10
2022-11-08T17:39:27.551Z,7.50
2022-11-08T17:41:55.742Z,7.00
2022-11-08T17:44:23.769Z,5.65
2022-11-08T17:46:51.868Z,5.65
2022-11-08T17:49:19.898Z,5.63
2022-11-08T17:51:48.062Z,5.63
2022-11-08T17:54:16.519Z,7.63
2022-11-08T17:56:46.428Z,6.20
2022-11-08T17:59:16.813Z,6.30
2022-11-08T18:01:44.854Z,5.72
2022-11-08T18:04:12.901Z,5.53
2022-11-08T18:06:44.277Z,5.63
2022-11-08T18:09:13.374Z,6.50
2022-11-08T18:11:47.543Z,7.40
2022-11-08T18:14:18.465Z,6.32
2022-11-08T18:16:48.897Z,5.80
2022-11-08T18:19:17.026Z,7.43
2022-11-08T18:21:44.977Z,7.15
2022-11-08T18:24:13.236Z,6.95
2022-11-08T18:26:42.426Z,5.63
2022-11-08T18:29:10.628Z,7.60
2022-11-08T18:31:40.109Z,5.60
2022-11-08T18:34:08.409Z,5.90
2022-11-08T18:36:36.431Z,5.90
2022-11-08T18:39:04.749Z,5.38
2022-11-08T18:41:35.015Z,5.20
2022-11-08T18:44:05.346Z,5.60
2022-11-08T18:46:40.304Z,5.82
2022-11-08T18:49:12.595Z,4.93
2022-11-08T18:51:40.673Z,5.60
2022-11-08T18:54:08.699Z,6.40
2022-11-08T18:56:36.863Z,6.93
2022-11-08T18:59:04.840Z,5.07
2022-11-08T19:01:33.062Z,5.28
2022-11-08T19:04:01.232Z,5.18
2022-11-08T19:06:30.654Z,4.85
2022-11-08T19:08:58.800Z,5.35
2022-11-08T19:11:28.564Z,5.20
2022-11-08T19:13:57.570Z,4.78
2022-11-08T19:16:25.586Z,5.30
2022-11-08T19:18:53.820Z,4.97
2022-11-08T19:21:23.666Z,4.93
2022-11-08T19:23:57.114Z,5.50
2022-11-08T19:26:27.562Z,5.35
2022-11-08T19:28:56.851Z,5.32
2022-11-08T19:31:27.027Z,5.97
2022-11-08T19:33:55.868Z,5.38
2022-11-08T19:36:25.766Z,5.25
2022-11-08T19:38:55.895Z,5.35
2022-11-08T19:41:24.874Z,5.72
2022-11-08T19:43:53.272Z,5.28
2022-11-08T19:46:23.566Z,5.30
2022-11-08T19:48:53.226Z,5.65
2022-11-08T19:51:25.085Z,5.97
2022-11-08T19:53:58.740Z,5.80
2022-11-08T19:56:50.174Z,5.20
2022-11-08T19:59:15.528Z,5.28
2022-11-08T20:01:43.671Z,6.00
2022-11-08T20:04:14.355Z,6.10
2022-11-08T20:06:42.743Z,5.68
2022-11-08T20:09:12.462Z,5.50
2022-11-08T20:11:41.911Z,5.25
2022-11-08T20:14:13.858Z,5.75
2022-11-08T20:16:47.906Z,5.93
2022-11-08T20:19:19.282Z,6.20
2022-11-08T20:21:47.482Z,6.95
2022-11-08T20:24:18.788Z,6.85
2022-11-08T20:26:46.759Z,5.78
2022-11-08T20:29:15.072Z,5.85
2022-11-08T20:31:43.161Z,5.15
2022-11-08T20:34:12.979Z,5.78
2022-11-08T20:36:44.082Z,5.93
2022-11-08T20:39:13.899Z,6.30
2022-11-08T20:41:43.392Z,6.32
2022-11-08T20:44:12.006Z,6.43
2022-11-08T20:46:40.422Z,6.47
2022-11-08T20:49:08.884Z,6.35
2022-11-08T20:51:37.030Z,6.53
2022-11-08T20:54:05.171Z,6.20
2022-11-08T20:56:35.835Z,6.03
2022-11-08T20:59:06.019Z,5.43
2022-11-08T21:01:34.586Z,5.82
2022-11-08T21:04:02.972Z,5.55
2022-11-08T21:06:35.948Z,5.22
2022-11-08T21:09:32.492Z,5.25
2022-11-08T21:11:55.529Z,5.25
2022-11-08T21:14:26.235Z,7.55
2022-11-08T21:19:42.280Z,5.43
2022-11-08T21:22:18.281Z,6.07
2022-11-08T21:24:47.741Z,6.10
2022-11-08T21:27:16.794Z,5.60
2022-11-08T21:29:46.275Z,5.75
2022-11-08T21:32:14.711Z,5.25
2022-11-08T21:34:45.971Z,5.32
2022-11-08T21:37:15.190Z,6.18
2022-11-08T21:39:43.429Z,6.78
2022-11-08T21:42:11.638Z,5.60
2022-11-08T21:44:39.582Z,5.40
2022-11-08T21:47:08.886Z,5.25
2022-11-08T21:49:38.923Z,6.60
2022-11-08T21:52:06.966Z,7.38
2022-11-08T21:54:34.985Z,6.40
2022-11-08T21:57:03.067Z,5.90
2022-11-08T21:59:31.035Z,6.18
2022-11-08T22:01:59.009Z,6.38
2022-11-08T22:04:30.432Z,7.57
2022-11-08T22:06:58.563Z,5.43
2022-11-08T22:09:26.698Z,6.63
2022-11-08T22:11:54.775Z,6.00
2022-11-08T22:14:22.808Z,5.40
2022-11-08T22:16:50.883Z,5.53
2022-11-08T22:19:18.903Z,5.95
2022-11-08T22:21:48.201Z,5.80
2022-11-08T22:24:18.451Z,6.13
2022-11-08T22:26:46.955Z,6.38
2022-11-08T22:29:17.934Z,5.50
2022-11-08T22:31:46.055Z,6.25
2022-11-08T22:34:14.382Z,5.93
2022-11-08T22:36:46.015Z,6.53
2022-11-08T22:39:20.185Z,9.70
2022-11-08T22:41:49.704Z,5.60
2022-11-08T22:44:18.649Z,8.10
2022-11-08T22:46:48.314Z,5.55
2022-11-08T22:49:17.147Z,9.05
2022-11-08T22:51:47.984Z,4.50
2022-11-08T22:54:17.393Z,4.90
2022-11-08T22:56:45.446Z,5.40
2022-11-08T22:59:13.871Z,5.35
2022-11-08T23:01:42.617Z,4.90
2022-11-08T23:04:11.629Z,5.00
2022-11-08T23:06:40.586Z,4.97
2022-11-08T23:09:09.009Z,4.45
2022-11-08T23:11:56.295Z,5.47
2022-11-08T23:14:41.917Z,4.80
2022-11-08T23:17:09.931Z,3.95
2022-11-08T23:19:54.444Z,4.47
2022-11-08T23:22:42.334Z,4.43
2022-11-08T23:25:12.607Z,5.28
2022-11-08T23:27:59.302Z,5.85
2022-11-08T23:30:44.747Z,4.88
2022-11-08T23:33:15.088Z,5.53
2022-11-08T23:35:59.265Z,6.70
2022-11-08T23:38:29.971Z,4.20
2022-11-08T23:41:18.189Z,4.68
2022-11-08T23:44:05.047Z,4.18
2022-11-08T23:46:33.042Z,4.13
2022-11-08T23:49:04.145Z,4.75
2022-11-08T23:51:32.308Z,4.00
2022-11-08T23:54:02.626Z,4.32
2022-11-08T23:56:30.656Z,4.25
2022-11-08T23:59:00.823Z,4.07
